Time;durP1;ratioP1;P1;durP2;ratioP2;P2;SDS_P1;SDS_P2;PMS_P1;PMS_P2;Temp;Humidity;BMP_temperature;BMP_pressure;BME280_temperature;BME280_humidity;BME280_pressure;Samples;Min_cycle;Max_cycle;Signal;HPM_P1;HPM_P2
2022/02/14 00:04:53;;;;;;;;;;;;;;;22.01;25.22;95230.88;10521603;28;1870;-51
2022/02/14 00:09:53;;;;;;;;;;;;;;;22.00;24.30;95224.03;10520019;28;1838;-47
2022/02/14 00:14:55;;;;;;;;;;;;;;;21.94;23.28;95217.31;10519889;28;1913;-44
2022/02/14 00:19:55;;;;;;;;;;;;;;;21.94;23.53;95211.22;10521134;28;1909;-43
2022/02/14 00:24:57;;;;;;;;;;;;;;;21.95;24.31;95212.81;10525527;28;1765;-43
2022/02/14 00:29:57;;;;;;;;;;;;;;;21.98;23.67;95205.06;10520792;28;1776;-47
2022/02/14 00:34:58;;;;;;;;;;;;;;;21.98;24.43;95197.16;10520991;28;1788;-44
2022/02/14 00:39:58;;;;;;;;;;;;;;;21.95;24.71;95194.34;10512820;28;1911;-49
2022/02/14 00:44:58;;;;;;;;;;;;;;;21.96;23.79;95194.03;10518433;28;1792;-46
2022/02/14 00:49:59;;;;;;;;;;;;;;;21.91;23.77;95196.75;10517743;28;1850;-48
2022/02/14 00:54:59;;;;;;;;;;;;;;;21.91;23.02;95194.13;10520210;28;1871;-49
2022/02/14 01:00:00;;;;;;;;;;;;;;;22.01;24.67;95183.34;10512259;28;2235;-48
2022/02/14 01:05:00;;;;;;;;;;;;;;;21.97;24.41;95171.84;10518816;28;1909;-45
2022/02/14 01:10:00;;;;;;;;;;;;;;;21.97;23.31;95168.44;10513302;28;1811;-46
2022/02/14 01:15:05;;;;;;;;;;;;;;;21.91;22.99;95167.75;10521141;28;1861;-47
2022/02/14 01:20:07;;;;;;;;;;;;;;;21.89;22.98;95159.34;10516749;28;1949;-45
2022/02/14 01:25:08;;;;;;;;;;;;;;;21.84;22.94;95157.56;10521283;28;1974;-44
2022/02/14 01:30:08;;;;;;;;;;;;;;;21.83;22.67;95158.66;10515440;28;1776;-44
2022/02/14 01:35:09;;;;;;;;;;;;;;;21.88;23.14;95146.44;10516295;28;2032;-46
2022/02/14 01:40:10;;;;;;;;;;;;;;;21.84;22.88;95139.09;10516909;28;1906;-45
2022/02/14 01:45:10;;;;;;;;;;;;;;;21.83;22.63;95137.56;10513610;28;2044;-44
2022/02/14 01:50:11;;;;;;;;;;;;;;;21.82;22.49;95133.34;10516773;28;1984;-44
2022/02/14 01:55:12;;;;;;;;;;;;;;;21.83;22.63;95128.88;10516902;28;2127;-48
2022/02/14 02:00:14;;;;;;;;;;;;;;;21.87;23.68;95114.00;10505014;28;1991;-45
2022/02/14 02:05:14;;;;;;;;;;;;;;;21.85;22.62;95114.31;10523374;28;1992;-47
2022/02/14 02:10:16;;;;;;;;;;;;;;;21.86;23.55;95099.25;10518812;28;2021;-46
2022/02/14 02:15:17;;;;;;;;;;;;;;;21.84;23.56;95098.78;10516586;28;1907;-43
2022/02/14 02:20:18;;;;;;;;;;;;;;;21.79;22.18;95097.00;10512822;28;2067;-48
2022/02/14 02:25:22;;;;;;;;;;;;;;;21.79;22.15;95080.38;10515197;28;2028;-46
2022/02/14 02:30:32;;;;;;;;;;;;;;;21.79;22.22;95080.38;10510801;28;1903;-48
2022/02/14 02:35:33;;;;;;;;;;;;;;;21.79;22.32;95075.09;10512748;28;2035;-48
2022/02/14 02:40:33;;;;;;;;;;;;;;;21.76;22.31;95059.88;10518639;28;1967;-47
2022/02/14 02:45:33;;;;;;;;;;;;;;;21.77;22.58;95066.69;10520580;28;2017;-45
2022/02/14 02:50:34;;;;;;;;;;;;;;;21.77;22.33;95061.44;10525562;28;1856;-45
2022/02/14 02:55:35;;;;;;;;;;;;;;;21.76;22.29;95059.88;10523950;28;1906;-51
2022/02/14 03:00:35;;;;;;;;;;;;;;;21.76;22.56;95055.34;10524740;28;1906;-46
2022/02/14 03:05:35;;;;;;;;;;;;;;;21.76;22.55;95054.59;10527492;28;2057;-46
2022/02/14 03:10:36;;;;;;;;;;;;;;;21.77;22.53;95046.38;10523639;28;2033;-45
2022/02/14 03:15:36;;;;;;;;;;;;;;;21.75;22.45;95045.91;10523879;28;1941;-42
2022/02/14 03:20:36;;;;;;;;;;;;;;;21.74;22.11;95038.28;10524124;28;1902;-49
2022/02/14 03:25:37;;;;;;;;;;;;;;;21.75;22.64;95039.84;10520925;28;1827;-45
2022/02/14 03:30:37;;;;;;;;;;;;;;;21.72;21.95;95032.53;10518802;28;1877;-45
2022/02/14 03:35:37;;;;;;;;;;;;;;;21.73;22.42;95037.50;10518236;28;1867;-44
2022/02/14 03:40:37;;;;;;;;;;;;;;;21.74;22.17;95025.09;10521458;28;1902;-44
2022/02/14 03:45:40;;;;;;;;;;;;;;;21.72;22.00;95014.06;10523990;28;1807;-45
2022/02/14 03:50:40;;;;;;;;;;;;;;;21.70;22.09;95019.63;10518956;28;1834;-47
2022/02/14 03:55:41;;;;;;;;;;;;;;;21.71;22.52;95010.66;10520252;28;1839;-48
2022/02/14 04:00:41;;;;;;;;;;;;;;;21.71;22.12;95009.84;10520217;28;2010;-46
2022/02/14 04:05:43;;;;;;;;;;;;;;;21.71;22.18;95015.13;10526850;28;1854;-44
2022/02/14 04:10:43;;;;;;;;;;;;;;;21.71;21.87;95012.50;10516789;28;1929;-47
2022/02/14 04:15:43;;;;;;;;;;;;;;;21.69;22.08;95004.09;10519258;28;1898;-48
2022/02/14 04:20:44;;;;;;;;;;;;;;;21.70;22.19;95003.03;10517786;28;1978;-46
2022/02/14 04:25:44;;;;;;;;;;;;;;;21.69;21.89;94990.91;10516236;28;1846;-44
2022/02/14 04:30:44;;;;;;;;;;;;;;;21.68;21.84;94989.34;10513694;28;1857;-50
2022/02/14 04:35:45;;;;;;;;;;;;;;;21.67;22.33;94983.31;10521574;28;1832;-44
2022/02/14 04:40:45;;;;;;;;;;;;;;;21.68;21.99;94973.50;10523439;28;1937;-44
2022/02/14 04:45:46;;;;;;;;;;;;;;;21.67;21.98;94972.75;10521213;28;1772;-46
2022/02/14 04:50:47;;;;;;;;;;;;;;;21.68;21.75;94957.69;10522510;28;1954;-48
2022/02/14 04:55:47;;;;;;;;;;;;;;;21.67;22.21;94962.22;10522412;28;1879;-45
2022/02/14 05:00:48;;;;;;;;;;;;;;;21.67;21.88;94956.94;10516598;28;1910;-47
2022/02/14 05:05:48;;;;;;;;;;;;;;;21.70;22.14;94960.84;10521238;28;1874;-44
2022/02/14 05:10:48;;;;;;;;;;;;;;;21.66;22.02;94960.63;10516442;28;2162;-44
2022/02/14 05:15:49;;;;;;;;;;;;;;;21.67;22.11;94959.56;10512902;22;2157;-55
2022/02/14 05:20:49;;;;;;;;;;;;;;;21.66;21.88;94970.41;10436126;28;1918;-54
2022/02/14 05:25:49;;;;;;;;;;;;;;;21.66;21.98;94965.91;10444297;28;1797;-54
2022/02/14 05:30:50;;;;;;;;;;;;;;;21.67;21.90;94964.06;10476790;28;1829;-56
2022/02/14 05:35:50;;;;;;;;;;;;;;;21.65;21.97;94964.38;10475168;28;2032;-53
2022/02/14 05:40:50;;;;;;;;;;;;;;;21.65;22.07;94960.94;10474360;28;1969;-57
2022/02/14 05:45:51;;;;;;;;;;;;;;;21.65;21.85;94959.09;10477631;28;1852;-57
2022/02/14 05:50:52;;;;;;;;;;;;;;;21.66;21.62;94965.13;10474360;28;1813;-53
2022/02/14 05:55:53;;;;;;;;;;;;;;;21.65;21.49;94961.72;10471737;28;2060;-57
2022/02/14 06:00:53;;;;;;;;;;;;;;;21.65;21.96;94963.56;10453098;28;1910;-55
2022/02/14 06:05:54;;;;;;;;;;;;;;;21.66;22.02;94962.47;10465294;28;2311;-56
2022/02/14 06:10:55;;;;;;;;;;;;;;;21.64;21.80;94962.78;10464738;28;1847;-56
2022/02/14 06:15:55;;;;;;;;;;;;;;;21.65;21.86;94964.38;10467798;28;1981;-56
2022/02/14 06:20:56;;;;;;;;;;;;;;;21.62;21.52;94964.16;10474300;28;2318;-56
2022/02/14 06:25:56;;;;;;;;;;;;;;;21.63;21.62;94955.97;10478424;28;1867;-57
2022/02/14 06:30:57;;;;;;;;;;;;;;;21.63;22.17;94955.97;10473980;28;1863;-55
2022/02/14 06:35:57;;;;;;;;;;;;;;;21.65;21.96;94963.56;10476894;28;1782;-56
2022/02/14 06:40:57;;;;;;;;;;;;;;;21.64;21.86;94957.50;10480685;28;1976;-56
2022/02/14 06:45:58;;;;;;;;;;;;;;;21.69;22.51;94959.25;10480654;28;2387;-54
2022/02/14 06:50:59;;;;;;;;;;;;;;;21.67;21.61;94961.41;10482927;28;1805;-56
2022/02/14 06:56:05;;;;;;;;;;;;;;;21.66;21.63;94965.13;10485383;28;1750;-55
2022/02/14 07:01:07;;;;;;;;;;;;;;;21.68;21.84;94960.31;10473155;28;1992;-56
2022/02/14 07:06:07;;;;;;;;;;;;;;;21.68;21.70;94955.06;10479408;28;2393;-56
2022/02/14 07:11:08;;;;;;;;;;;;;;;21.75;22.15;94956.22;10465992;28;2097;-59
2022/02/14 07:16:08;;;;;;;;;;;;;;;21.73;21.58;94954.94;10474878;28;1873;-59
2022/02/14 07:21:09;;;;;;;;;;;;;;;21.77;23.05;94955.91;10477733;28;2005;-59
2022/02/14 07:26:09;;;;;;;;;;;;;;;21.76;21.68;94954.38;10477454;28;1918;-59
2022/02/14 07:31:09;;;;;;;;;;;;;;;21.72;21.94;94956.03;10470407;28;1827;-58
2022/02/14 07:36:10;;;;;;;;;;;;;;;21.76;22.89;94949.09;10472129;28;1856;-57
2022/02/14 07:41:10;;;;;;;;;;;;;;;21.94;23.33;94944.72;10473469;28;1975;-60
2022/02/14 07:46:10;;;;;;;;;;;;;;;22.01;23.40;94940.56;10469000;28;1875;-63
2022/02/14 07:51:11;;;;;;;;;;;;;;;22.07;23.45;94952.56;10473897;28;1935;-62
2022/02/14 07:56:13;;;;;;;;;;;;;;;22.12;23.81;94941.09;10472284;28;1950;-61
2022/02/14 08:01:14;;;;;;;;;;;;;;;22.20;23.86;94937.72;10472308;28;2170;-65
2022/02/14 08:06:14;;;;;;;;;;;;;;;22.20;23.94;94938.50;10471613;28;2288;-66
2022/02/14 08:11:14;;;;;;;;;;;;;;;22.21;24.00;94932.16;10476769;28;1923;-65
2022/02/14 08:16:15;;;;;;;;;;;;;;;22.22;23.98;94941.63;10471023;28;2016;-65
2022/02/14 08:21:15;;;;;;;;;;;;;;;22.26;24.13;94929.38;10491831;28;1976;-61
2022/02/14 08:26:15;;;;;;;;;;;;;;;22.26;24.39;94925.94;10473618;28;1874;-63
2022/02/14 08:31:15;;;;;;;;;;;;;;;22.20;23.40;94933.22;10490196;28;1906;-58
2022/02/14 08:36:16;;;;;;;;;;;;;;;22.07;23.34;94928.81;10476146;28;1867;-57
2022/02/14 08:41:16;;;;;;;;;;;;;;;22.21;24.26;94926.09;10478869;28;1977;-62
2022/02/14 08:46:20;;;;;;;;;;;;;;;22.26;24.61;94920.66;10476560;28;2466;-63
2022/02/14 08:51:21;;;;;;;;;;;;;;;22.33;24.64;94919.16;10473263;28;1837;-58
2022/02/14 08:56:21;;;;;;;;;;;;;;;22.34;24.84;94919.97;10468811;28;1869;-60
2022/02/14 09:01:22;;;;;;;;;;;;;;;22.40;24.74;94916.84;10473930;28;1973;-65
2022/02/14 09:06:22;;;;;;;;;;;;;;;22.47;24.78;94911.94;10475376;28;1884;-58
2022/02/14 09:11:22;;;;;;;;;;;;;;;22.46;24.61;94912.25;10468070;28;1834;-63
2022/02/14 09:16:23;;;;;;;;;;;;;;;22.39;24.61;94915.31;10476555;28;1852;-62
2022/02/14 09:21:23;;;;;;;;;;;;;;;22.51;24.66;94912.88;10474840;28;1914;-61
2022/02/14 09:26:25;;;;;;;;;;;;;;;22.61;24.77;94902.06;10477332;28;1840;-59
2022/02/14 09:31:25;;;;;;;;;;;;;;;22.55;25.01;94897.97;10474568;28;1783;-58
2022/02/14 09:36:26;;;;;;;;;;;;;;;22.55;24.99;94897.97;10465423;28;1836;-60
2022/02/14 09:41:26;;;;;;;;;;;;;;;22.63;25.18;94894.59;10471656;28;1981;-58
2022/02/14 09:46:26;;;;;;;;;;;;;;;22.67;25.02;94892.91;10467865;28;1964;-60
2022/02/14 09:51:28;;;;;;;;;;;;;;;22.70;25.19;94885.44;10452815;28;1987;-58
2022/02/14 09:56:32;;;;;;;;;;;;;;;22.74;25.20;94897.75;10473332;28;1824;-59
2022/02/14 10:01:35;;;;;;;;;;;;;;;22.74;25.06;94896.97;10465993;28;1906;-65
2022/02/14 10:06:37;;;;;;;;;;;;;;;22.77;25.12;94894.50;10477710;28;1782;-65
2022/02/14 10:11:42;;;;;;;;;;;;;;;22.78;25.11;94885.47;10489835;28;2036;-62
2022/02/14 10:16:59;;;;;;;;;;;;;;;22.80;25.13;94887.78;10472450;28;1898;-66
2022/02/14 10:22:00;;;;;;;;;;;;;;;22.80;24.97;94880.66;10471867;28;1894;-64
2022/02/14 10:27:00;;;;;;;;;;;;;;;22.81;25.13;94879.59;10475094;28;2161;-68
2022/02/14 10:32:02;;;;;;;;;;;;;;;22.80;25.21;94882.50;10467972;28;1809;-64
2022/02/14 10:37:02;;;;;;;;;;;;;;;22.81;25.38;94879.59;10473761;28;1753;-63
2022/02/14 10:42:04;;;;;;;;;;;;;;;22.79;25.24;94876.47;10474072;28;1955;-61
2022/02/14 10:47:05;;;;;;;;;;;;;;;22.87;25.34;94877.56;10472544;28;2057;-62
2022/02/14 10:52:06;;;;;;;;;;;;;;;22.87;25.17;94859.84;10450916;28;1956;-64
2022/02/14 10:57:07;;;;;;;;;;;;;;;22.82;25.18;94859.19;10469668;28;1764;-62
2022/02/14 11:02:08;;;;;;;;;;;;;;;22.84;25.30;94851.75;10465656;28;1906;-61
2022/02/14 11:07:09;;;;;;;;;;;;;;;22.82;25.60;94846.00;10470663;28;2187;-62
2022/02/14 11:12:09;;;;;;;;;;;;;;;22.75;25.29;94843.03;10457810;28;1867;-60
2022/02/14 11:17:10;;;;;;;;;;;;;;;22.82;25.44;94832.78;10475313;28;1888;-60
2022/02/14 11:22:11;;;;;;;;;;;;;;;22.84;25.25;94827.97;10475045;28;1976;-58
2022/02/14 11:27:13;;;;;;;;;;;;;;;22.84;25.16;94822.69;10473422;28;1840;-59
2022/02/14 11:32:24;;;;;;;;;;;;;;;22.86;25.64;94810.72;10474334;28;1833;-59
2022/02/14 11:37:25;;;;;;;;;;;;;;;22.83;23.75;94813.22;10478759;28;1820;-62
2022/02/14 11:42:25;;;;;;;;;;;;;;;22.16;20.55;94802.94;10477483;28;2016;-61
2022/02/14 11:47:31;;;;;;;;;;;;;;;21.67;19.04;94792.63;10471070;28;2075;-61
2022/02/14 11:52:34;;;;;;;;;;;;;;;21.37;18.81;94785.47;10469372;28;1891;-60
2022/02/14 11:57:36;;;;;;;;;;;;;;;21.31;18.46;94784.81;10469614;28;1913;-60
2022/02/14 12:02:37;;;;;;;;;;;;;;;21.78;21.48;94775.47;10477066;28;1913;-61
2022/02/14 12:07:38;;;;;;;;;;;;;;;22.23;21.87;94768.97;10482506;28;1776;-60
2022/02/14 12:12:39;;;;;;;;;;;;;;;22.32;22.30;94772.38;10478207;28;1817;-58
2022/02/14 12:22:58;;;;;;;;;;;;;;;22.51;22.68;94754.41;10454246;22;1955;-46
2022/02/14 12:28:00;;;;;;;;;;;;;;;22.50;23.05;94742.28;10416683;28;1787;-48
2022/02/14 12:33:00;;;;;;;;;;;;;;;22.53;23.36;94748.81;10422279;28;1899;-45
2022/02/14 12:38:00;;;;;;;;;;;;;;;22.57;23.53;94739.97;10431515;28;1842;-45
2022/02/14 12:43:01;;;;;;;;;;;;;;;22.60;23.65;94735.97;10432494;28;1906;-46
2022/02/14 12:48:01;;;;;;;;;;;;;;;22.65;23.53;94741.06;10432704;28;1783;-46
2022/02/14 12:53:07;;;;;;;;;;;;;;;22.64;24.00;94721.84;10432354;28;1855;-46
2022/02/14 12:58:08;;;;;;;;;;;;;;;22.63;24.10;94730.03;10427657;28;1968;-48
2022/02/14 13:03:09;;;;;;;;;;;;;;;22.58;24.22;94717.00;10434436;28;1822;-50
2022/02/14 13:08:20;;;;;;;;;;;;;;;22.61;24.40;94716.38;10416891;28;2152;-46
2022/02/14 13:13:30;;;;;;;;;;;;;;;22.64;24.34;94708.63;10424261;28;1905;-50
2022/02/14 13:18:40;;;;;;;;;;;;;;;22.62;24.44;94702.09;10429463;28;1977;-50
2022/02/14 13:23:41;;;;;;;;;;;;;;;22.61;24.14;94703.16;10426839;28;1799;-53
2022/02/14 13:28:42;;;;;;;;;;;;;;;22.56;24.36;94705.94;10420057;28;1908;-49
2022/02/14 13:33:50;;;;;;;;;;;;;;;22.51;24.45;94704.22;10430904;28;1874;-51
2022/02/14 13:38:50;;;;;;;;;;;;;;;22.52;24.57;94689.91;10424636;28;1910;-46
2022/02/14 13:43:50;;;;;;;;;;;;;;;22.75;24.58;94692.44;10427746;28;1871;-46
2022/02/14 13:48:51;;;;;;;;;;;;;;;22.76;24.32;94692.13;10416763;28;1814;-51
2022/02/14 13:53:59;;;;;;;;;;;;;;;22.61;24.76;94690.75;10422001;28;1838;-52
2022/02/14 13:59:00;;;;;;;;;;;;;;;22.54;25.19;94689.63;10424597;28;1967;-54
2022/02/14 14:04:01;;;;;;;;;;;;;;;22.52;25.41;94683.88;10425379;28;1748;-47
2022/02/14 14:09:22;;;;;;;;;;;;;;;22.51;25.12;94684.97;10426113;28;1996;-47
2022/02/14 14:14:29;;;;;;;;;;;;;;;22.49;25.47;94687.91;10427244;28;2618;-51
2022/02/14 14:19:29;;;;;;;;;;;;;;;22.49;25.50;94682.63;10421955;28;1910;-52
2022/02/14 14:24:30;;;;;;;;;;;;;;;22.53;25.64;94688.06;10425737;28;1804;-55
2022/02/14 14:29:30;;;;;;;;;;;;;;;22.51;25.88;94685.75;10429581;28;1814;-55
2022/02/14 14:34:30;;;;;;;;;;;;;;;22.54;25.87;94682.50;10429935;28;1786;-52
2022/02/14 14:39:31;;;;;;;;;;;;;;;22.57;25.94;94681.84;10428869;28;1978;-50
2022/02/14 14:44:32;;;;;;;;;;;;;;;22.62;25.94;94681.75;10442525;28;1894;-51
2022/02/14 14:49:32;;;;;;;;;;;;;;;22.64;25.97;94679.56;10432221;28;1935;-49
2022/02/14 14:54:33;;;;;;;;;;;;;;;22.62;26.17;94684.38;10433181;28;1819;-49
2022/02/14 14:59:33;;;;;;;;;;;;;;;22.72;26.22;94682.50;10420027;28;1910;-46
2022/02/14 15:04:34;;;;;;;;;;;;;;;22.71;25.81;94688.88;10430459;28;1805;-47
2022/02/14 15:09:34;;;;;;;;;;;;;;;22.69;25.61;94696.34;10431084;28;1840;-46
2022/02/14 15:14:34;;;;;;;;;;;;;;;22.67;25.78;94700.06;10429151;28;1854;-46
2022/02/14 15:19:37;;;;;;;;;;;;;;;22.69;25.44;94696.34;10439644;28;1991;-47
2022/02/14 15:24:38;;;;;;;;;;;;;;;22.62;25.80;94694.94;10418178;28;1842;-46
2022/02/14 15:29:38;;;;;;;;;;;;;;;22.64;25.67;94692.78;10439853;28;1768;-48
2022/02/14 15:34:39;;;;;;;;;;;;;;;22.64;25.56;94690.13;10427050;28;1780;-48
2022/02/14 15:39:39;;;;;;;;;;;;;;;22.62;25.44;94692.31;10433804;28;1971;-47
2022/02/14 15:44:39;;;;;;;;;;;;;;;22.59;25.84;94686.84;10431382;28;1842;-49
2022/02/14 15:49:40;;;;;;;;;;;;;;;22.56;25.54;94682.97;10427312;28;1912;-49
2022/02/14 15:54:40;;;;;;;;;;;;;;;22.55;25.74;94691.16;10436972;28;1823;-50
2022/02/14 15:59:40;;;;;;;;;;;;;;;22.56;25.86;94696.16;10432183;28;1898;-49
2022/02/14 16:04:42;;;;;;;;;;;;;;;22.55;25.66;94691.97;10428008;28;1873;-48
2022/02/14 16:09:43;;;;;;;;;;;;;;;22.51;25.54;94684.97;10435129;28;1835;-47
2022/02/14 16:14:44;;;;;;;;;;;;;;;22.53;25.77;94673.00;10430049;28;1855;-48
2022/02/14 16:19:44;;;;;;;;;;;;;;;22.53;25.56;94662.44;10430467;28;1898;-45
2022/02/14 16:24:44;;;;;;;;;;;;;;;22.53;25.76;94662.44;10430020;28;1819;-46
2022/02/14 16:29:45;;;;;;;;;;;;;;;22.52;25.62;94649.56;10430135;28;1796;-48
2022/02/14 16:34:45;;;;;;;;;;;;;;;22.49;25.79;94650.16;10430040;28;1779;-46
2022/02/14 16:39:45;;;;;;;;;;;;;;;22.48;25.88;94644.09;10431735;28;1918;-50
2022/02/14 16:44:46;;;;;;;;;;;;;;;22.49;25.65;94656.22;10428651;28;2037;-51
2022/02/14 16:49:54;;;;;;;;;;;;;;;22.50;25.55;94652.50;10428455;28;2028;-49
2022/02/14 16:54:55;;;;;;;;;;;;;;;22.49;25.55;94664.16;10423249;28;1759;-49
2022/02/14 16:59:55;;;;;;;;;;;;;;;22.46;25.84;94662.13;10433025;28;1957;-47
2022/02/14 17:04:57;;;;;;;;;;;;;;;22.53;25.59;94669.59;10423643;28;1863;-46
2022/02/14 17:09:58;;;;;;;;;;;;;;;22.49;25.62;94674.72;10428073;28;1976;-46
2022/02/14 17:14:58;;;;;;;;;;;;;;;22.48;25.50;94683.72;10427483;28;1813;-47
2022/02/14 17:19:58;;;;;;;;;;;;;;;22.51;25.92;94695.53;10413688;28;1973;-49
2022/02/14 17:24:59;;;;;;;;;;;;;;;22.46;25.52;94704.38;10423795;28;1751;-48
2022/02/14 17:29:59;;;;;;;;;;;;;;;22.57;25.94;94705.63;10427550;28;1753;-48
2022/02/14 17:34:59;;;;;;;;;;;;;;;22.50;25.90;94710.59;10421573;28;1802;-52
2022/02/14 17:40:00;;;;;;;;;;;;;;;22.59;25.67;94713.25;10429229;28;1961;-46
2022/02/14 17:45:00;;;;;;;;;;;;;;;22.64;25.77;94705.19;10427261;28;1801;-46
2022/02/14 17:50:03;;;;;;;;;;;;;;;22.54;25.58;94716.03;10429484;28;1843;-46
2022/02/14 17:55:03;;;;;;;;;;;;;;;22.52;25.60;94729.53;10434854;28;1772;-50
2022/02/14 18:00:04;;;;;;;;;;;;;;;22.51;25.81;94740.41;10428787;28;1910;-48
2022/02/14 18:05:05;;;;;;;;;;;;;;;22.51;25.77;94745.69;10424554;28;1792;-52
2022/02/14 18:10:05;;;;;;;;;;;;;;;22.47;25.33;94753.47;10426986;28;1874;-51
2022/02/14 18:15:06;;;;;;;;;;;;;;;22.47;25.77;94758.75;10415604;28;1829;-50
2022/02/14 18:20:07;;;;;;;;;;;;;;;22.40;25.43;94768.97;10421871;28;2158;-47
2022/02/14 18:25:08;;;;;;;;;;;;;;;22.39;25.71;94782.50;10427294;22;1953;-57
2022/02/14 18:30:10;;;;;;;;;;;;;;;22.38;25.64;94789.63;10414258;28;1868;-57
2022/02/14 18:35:10;;;;;;;;;;;;;;;22.33;25.59;94787.16;10408320;28;1824;-56
2022/02/14 18:40:11;;;;;;;;;;;;;;;22.54;25.76;94790.78;10414557;28;2013;-54
2022/02/14 18:45:14;;;;;;;;;;;;;;;22.50;25.75;94792.44;10418442;28;1856;-57
2022/02/14 18:50:16;;;;;;;;;;;;;;;22.46;25.72;94793.41;10416659;28;1821;-58
2022/02/14 18:55:16;;;;;;;;;;;;;;;22.45;26.27;94792.63;10417224;28;1809;-56
2022/02/14 19:00:16;;;;;;;;;;;;;;;22.48;26.15;94789.34;10413697;28;1906;-58
2022/02/14 19:05:17;;;;;;;;;;;;;;;22.44;26.24;94788.41;10413689;28;1959;-57
2022/02/14 19:10:17;;;;;;;;;;;;;;;22.44;25.94;94801.59;10408175;28;1765;-55
2022/02/14 19:15:18;;;;;;;;;;;;;;;22.44;25.79;94811.41;10417358;28;1822;-57
2022/02/14 19:20:18;;;;;;;;;;;;;;;22.43;25.36;94821.19;10413651;28;2235;-56
2022/02/14 19:25:18;;;;;;;;;;;;;;;22.45;25.38;94811.09;10409300;28;1972;-57
2022/02/14 19:30:20;;;;;;;;;;;;;;;22.43;25.51;94821.19;10389207;28;1860;-57
2022/02/14 19:35:20;;;;;;;;;;;;;;;22.45;25.68;94824.31;10398095;28;1817;-58
2022/02/14 19:40:21;;;;;;;;;;;;;;;22.43;25.75;94826.47;10409589;28;1906;-56
2022/02/14 19:45:21;;;;;;;;;;;;;;;22.42;25.87;94838.09;10417236;28;1861;-58
2022/02/14 19:50:23;;;;;;;;;;;;;;;22.59;25.57;94851.41;10416366;28;1810;-55
2022/02/14 19:55:23;;;;;;;;;;;;;;;22.63;26.18;94846.25;10415624;28;1849;-57
2022/02/14 20:00:28;;;;;;;;;;;;;;;22.46;25.57;94857.53;10411893;28;1914;-57
2022/02/14 20:05:28;;;;;;;;;;;;;;;22.46;25.69;94862.06;10413688;28;1832;-57
2022/02/14 20:10:29;;;;;;;;;;;;;;;22.39;25.31;94877.56;10400935;28;2134;-59
2022/02/14 20:15:29;;;;;;;;;;;;;;;22.38;25.45;94874.13;10401373;28;1856;-57
2022/02/14 20:20:30;;;;;;;;;;;;;;;22.51;25.89;94875.09;10423386;28;2574;-55
2022/02/14 20:25:30;;;;;;;;;;;;;;;22.40;26.05;94876.50;10400521;28;1834;-56
2022/02/14 20:30:32;;;;;;;;;;;;;;;22.39;26.25;94883.63;10412391;28;1810;-56
2022/02/14 20:35:33;;;;;;;;;;;;;;;22.41;26.21;94896.50;10409685;28;1803;-57
2022/02/14 20:40:33;;;;;;;;;;;;;;;22.41;26.94;94897.31;10397786;28;1950;-57
2022/02/14 20:45:34;;;;;;;;;;;;;;;22.54;26.61;94899.06;10396411;28;2343;-58
2022/02/14 20:50:35;;;;;;;;;;;;;;;22.49;26.74;94901.03;10410176;28;1791;-58
2022/02/14 20:55:35;;;;;;;;;;;;;;;22.51;26.36;94896.25;10413025;28;2039;-57
2022/02/14 21:00:36;;;;;;;;;;;;;;;22.46;26.21;94899.78;10415471;28;1906;-56
2022/02/14 21:05:37;;;;;;;;;;;;;;;22.42;26.69;94896.19;10409418;28;1829;-56
2022/02/14 21:10:37;;;;;;;;;;;;;;;22.41;27.10;94894.66;10415165;28;1833;-56
2022/02/14 21:15:38;;;;;;;;;;;;;;;22.43;26.65;94899.63;10416213;28;1770;-55
2022/02/14 21:20:38;;;;;;;;;;;;;;;22.43;26.87;94897.78;10413616;28;1977;-56
2022/02/14 21:25:39;;;;;;;;;;;;;;;22.45;27.06;94895.59;10388176;28;1895;-57
2022/02/14 21:30:39;;;;;;;;;;;;;;;22.38;26.92;94900.53;10412314;28;1805;-57
2022/02/14 21:35:39;;;;;;;;;;;;;;;22.43;27.18;94908.34;10417395;28;1771;-54
2022/02/14 21:40:40;;;;;;;;;;;;;;;22.42;27.08;94908.66;10413910;28;1987;-57
2022/02/14 21:45:40;;;;;;;;;;;;;;;22.37;27.08;94906.91;10417228;28;1766;-57
2022/02/14 21:50:40;;;;;;;;;;;;;;;22.36;27.23;94902.69;10401195;28;1825;-58
2022/02/14 21:55:41;;;;;;;;;;;;;;;22.38;26.92;94912.97;10418314;28;1754;-57
2022/02/14 22:00:42;;;;;;;;;;;;;;;22.40;27.28;94906.28;10410370;28;1967;-58
2022/02/14 22:11:03;;;;;;;;;;;;;;;22.35;27.16;94892.44;10410454;28;1848;-58
2022/02/14 22:16:04;;;;;;;;;;;;;;;22.36;26.97;94902.69;10405887;28;1889;-56
2022/02/14 22:21:04;;;;;;;;;;;;;;;22.30;27.26;94890.72;10405737;28;1975;-58
2022/02/14 22:26:05;;;;;;;;;;;;;;;22.33;27.33;94897.25;10406608;28;1936;-57
2022/02/14 22:31:05;;;;;;;;;;;;;;;22.32;27.17;94899.13;10405671;28;1825;-56
2022/02/14 22:36:06;;;;;;;;;;;;;;;22.29;27.19;94905.03;10409919;28;1794;-59
2022/02/14 22:41:06;;;;;;;;;;;;;;;22.30;26.98;94922.41;10400534;28;1987;-56
2022/02/14 22:46:06;;;;;;;;;;;;;;;22.30;26.83;94934.81;10411963;28;1866;-58
2022/02/14 22:51:07;;;;;;;;;;;;;;;22.29;26.96;94946.47;10403295;28;1833;-57
2022/02/14 22:56:07;;;;;;;;;;;;;;;22.26;26.60;94947.84;10398144;28;3357;-56
2022/02/14 23:01:08;;;;;;;;;;;;;;;22.29;26.92;94946.47;10404131;28;1887;-55
2022/02/14 23:06:09;;;;;;;;;;;;;;;22.21;26.90;94953.28;10410003;28;1862;-58
2022/02/14 23:16:28;;;;;;;;;;;;;;;22.19;26.89;94960.72;10409994;28;1808;-58
2022/02/14 23:21:29;;;;;;;;;;;;;;;22.18;26.27;94956.50;10410759;28;1964;-57
2022/02/14 23:26:30;;;;;;;;;;;;;;;22.20;26.42;94962.28;10414404;28;1841;-55
2022/02/14 23:31:30;;;;;;;;;;;;;;;22.31;26.74;94960.94;10407964;28;1767;-57
2022/02/14 23:36:31;;;;;;;;;;;;;;;22.26;26.64;94955.78;10423091;28;1761;-58
2022/02/14 23:41:31;;;;;;;;;;;;;;;22.24;26.47;94952.66;10420907;28;2053;-59
2022/02/14 23:46:31;;;;;;;;;;;;;;;22.23;26.55;94943.19;10426271;28;1792;-58
2022/02/14 23:51:33;;;;;;;;;;;;;;;22.27;26.61;94946.78;10418626;28;1823;-57
2022/02/14 23:56:33;;;;;;;;;;;;;;;22.25;26.72;94940.25;10422304;28;1745;-58
